createdAt,value
2022-11-30T00:02:01.452Z,11.85
2022-11-30T00:07:03.490Z,14.63
2022-11-30T00:12:05.618Z,12.10
2022-11-30T00:17:07.393Z,12.55
2022-11-30T00:22:09.316Z,12.77
2022-11-30T00:27:11.042Z,13.63
2022-11-30T00:32:12.775Z,14.10
2022-11-30T00:37:15.009Z,12.18
2022-11-30T00:42:16.929Z,13.63
2022-11-30T00:47:18.840Z,13.25
2022-11-30T00:52:20.567Z,13.27
2022-11-30T00:57:22.457Z,12.68
2022-11-30T01:02:24.240Z,12.68
2022-11-30T01:07:26.099Z,13.23
2022-11-30T01:12:27.954Z,13.18
2022-11-30T01:17:31.429Z,14.23
2022-11-30T01:22:33.545Z,13.38
2022-11-30T01:27:36.704Z,12.52
2022-11-30T01:32:38.500Z,15.23
2022-11-30T01:37:40.337Z,14.93
2022-11-30T01:42:46.600Z,14.27
2022-11-30T01:47:52.339Z,14.57
2022-11-30T01:52:57.049Z,14.00
2022-11-30T01:58:06.449Z,14.00
2022-11-30T02:03:28.413Z,14.63
2022-11-30T02:08:31.624Z,13.77
2022-11-30T02:14:00.817Z,14.73
2022-11-30T02:19:14.830Z,14.88
2022-11-30T02:24:47.739Z,15.00
2022-11-30T02:29:56.298Z,12.90
2022-11-30T02:35:00.503Z,15.73
2022-11-30T02:40:06.744Z,13.15
2022-11-30T02:45:09.814Z,12.75
2022-11-30T02:50:14.479Z,13.55
2022-11-30T02:55:18.315Z,14.73
2022-11-30T03:00:20.337Z,13.70
2022-11-30T03:05:22.266Z,12.55
2022-11-30T03:10:24.002Z,15.98
2022-11-30T03:15:26.353Z,14.30
2022-11-30T03:20:28.080Z,11.75
2022-11-30T03:25:29.874Z,14.82
2022-11-30T03:30:31.694Z,15.32
2022-11-30T03:35:33.553Z,15.57
2022-11-30T03:40:37.246Z,14.85
2022-11-30T03:45:38.955Z,13.27
2022-11-30T03:50:42.112Z,13.13
2022-11-30T03:55:43.969Z,14.00
2022-11-30T04:00:45.699Z,12.77
2022-11-30T04:05:47.690Z,14.65
2022-11-30T04:10:54.408Z,13.57
2022-11-30T04:15:56.572Z,13.50
2022-11-30T04:20:59.482Z,13.07
2022-11-30T04:26:03.921Z,15.07
2022-11-30T04:31:06.575Z,13.52
2022-11-30T04:36:17.910Z,16.20
2022-11-30T04:41:19.774Z,14.27
2022-11-30T04:46:21.552Z,14.65
2022-11-30T04:51:23.354Z,17.73
2022-11-30T04:56:25.153Z,13.70
2022-11-30T05:01:27.010Z,15.57
2022-11-30T05:06:28.848Z,14.90
2022-11-30T05:11:30.706Z,13.50
2022-11-30T05:16:32.653Z,16.33
2022-11-30T05:21:34.463Z,16.75
2022-11-30T05:26:37.278Z,20.90
2022-11-30T05:31:39.867Z,19.75
2022-11-30T05:36:41.704Z,21.08
2022-11-30T05:41:43.491Z,18.95
2022-11-30T05:46:45.275Z,23.23
2022-11-30T05:51:47.190Z,20.67
2022-11-30T05:56:53.100Z,21.10
2022-11-30T06:01:56.897Z,21.23
2022-11-30T06:06:58.809Z,19.05
2022-11-30T06:12:00.704Z,22.60
2022-11-30T06:17:02.535Z,21.50
2022-11-30T06:22:04.264Z,23.02
2022-11-30T06:27:06.001Z,19.45
2022-11-30T06:32:08.340Z,19.90
2022-11-30T06:37:10.314Z,28.88
2022-11-30T06:42:12.200Z,22.27
2022-11-30T06:47:14.126Z,20.75
2022-11-30T06:52:15.969Z,24.08
2022-11-30T06:57:17.817Z,21.98
2022-11-30T07:02:19.595Z,19.67
2022-11-30T07:07:21.663Z,25.80
2022-11-30T07:12:24.423Z,22.25
2022-11-30T07:17:26.210Z,24.33
2022-11-30T07:22:27.994Z,21.95
2022-11-30T07:27:32.007Z,25.63
2022-11-30T07:32:33.758Z,25.15
2022-11-30T07:37:35.613Z,22.40
2022-11-30T07:42:37.486Z,24.85
2022-11-30T07:47:39.237Z,22.98
2022-11-30T07:52:41.160Z,26.23
2022-11-30T07:57:42.838Z,21.35
2022-11-30T08:02:44.586Z,26.83
2022-11-30T08:07:51.449Z,27.20
2022-11-30T08:12:53.402Z,25.95
2022-11-30T08:17:55.455Z,26.55
2022-11-30T08:22:58.788Z,23.55
2022-11-30T08:28:00.675Z,22.02
2022-11-30T08:33:02.587Z,22.35
2022-11-30T08:38:04.370Z,27.13
2022-11-30T08:43:06.139Z,24.52
2022-11-30T08:48:07.970Z,24.33
2022-11-30T08:53:09.740Z,25.70
2022-11-30T08:58:11.557Z,24.73
2022-11-30T09:03:14.704Z,22.38
2022-11-30T09:08:16.638Z,23.27
2022-11-30T09:13:18.366Z,23.25
2022-11-30T09:18:20.442Z,20.70
2022-11-30T09:23:22.280Z,23.80
2022-11-30T09:28:24.295Z,21.27
2022-11-30T09:33:26.620Z,23.75
2022-11-30T09:38:28.816Z,23.60
2022-11-30T09:43:45.651Z,23.38
2022-11-30T09:48:56.290Z,21.95
2022-11-30T09:54:13.210Z,24.92
2022-11-30T09:59:22.242Z,21.95
2022-11-30T10:04:29.821Z,27.65
2022-11-30T10:10:08.944Z,23.87
2022-11-30T10:15:50.719Z,21.65
2022-11-30T10:21:03.865Z,25.27
2022-11-30T10:26:16.395Z,22.60
2022-11-30T10:31:30.174Z,29.25
2022-11-30T10:36:39.675Z,21.77
2022-11-30T10:41:47.646Z,21.83
2022-11-30T10:46:58.240Z,22.63
2022-11-30T10:52:04.689Z,25.90
2022-11-30T10:57:07.329Z,25.33
2022-11-30T11:02:38.234Z,25.10
2022-11-30T11:08:19.343Z,25.38
2022-11-30T11:13:38.880Z,22.30
2022-11-30T11:18:55.541Z,25.98
2022-11-30T11:23:58.139Z,29.52
2022-11-30T11:29:00.014Z,22.95
2022-11-30T11:34:02.548Z,24.73
2022-11-30T11:39:25.570Z,22.58
2022-11-30T11:44:28.137Z,29.33
2022-11-30T11:49:34.390Z,30.35
2022-11-30T11:54:57.326Z,29.85
2022-11-30T12:00:16.575Z,25.67
2022-11-30T12:05:27.127Z,28.77
2022-11-30T12:10:53.419Z,24.98
2022-11-30T12:16:01.638Z,25.45
2022-11-30T12:21:19.152Z,26.30
2022-11-30T12:26:50.523Z,31.50
2022-11-30T12:31:55.043Z,29.23
2022-11-30T12:37:08.581Z,26.83
2022-11-30T12:42:49.611Z,30.27
2022-11-30T12:48:05.133Z,47.28
2022-11-30T12:53:27.159Z,56.88
2022-11-30T12:58:51.125Z,60.90
2022-11-30T13:04:19.236Z,57.00
2022-11-30T13:09:41.420Z,49.95
2022-11-30T13:14:43.406Z,58.95
2022-11-30T13:20:08.581Z,53.20
2022-11-30T13:26:08.926Z,43.55
2022-11-30T13:31:15.436Z,37.88
2022-11-30T13:36:36.027Z,33.63
2022-11-30T13:41:38.182Z,32.97
2022-11-30T13:46:50.225Z,31.13
2022-11-30T13:52:13.565Z,35.45
2022-11-30T13:57:28.975Z,39.38
2022-11-30T14:02:34.054Z,41.45
2022-11-30T14:07:39.080Z,44.70
2022-11-30T14:12:56.518Z,43.00
2022-11-30T14:17:59.005Z,41.67
2022-11-30T14:23:11.980Z,41.42
2022-11-30T14:28:18.490Z,41.80
2022-11-30T14:33:39.434Z,44.20
2022-11-30T14:38:42.533Z,44.40
2022-11-30T14:44:01.588Z,38.75
2022-11-30T14:49:05.323Z,42.53
2022-11-30T14:54:38.171Z,41.03
2022-11-30T14:59:54.926Z,43.25
2022-11-30T15:04:58.670Z,35.83
2022-11-30T15:10:10.978Z,38.13
2022-11-30T15:15:17.080Z,35.13
2022-11-30T15:20:26.734Z,36.28
2022-11-30T15:25:37.966Z,36.88
2022-11-30T15:30:43.142Z,34.45
2022-11-30T15:36:15.971Z,32.53
2022-11-30T15:41:24.631Z,31.73
2022-11-30T15:46:45.776Z,35.28
2022-11-30T15:52:14.302Z,31.23
2022-11-30T15:57:17.109Z,36.58
2022-11-30T16:02:28.251Z,31.45
2022-11-30T16:07:52.967Z,40.20
2022-11-30T16:12:55.926Z,38.55
2022-11-30T16:18:15.793Z,37.00
2022-11-30T16:23:19.183Z,33.72
2022-11-30T16:28:22.620Z,34.45
2022-11-30T16:33:30.724Z,41.30
2022-11-30T16:38:33.217Z,36.55
2022-11-30T16:43:35.022Z,41.05
2022-11-30T16:48:36.826Z,38.00
2022-11-30T16:53:38.549Z,41.17
2022-11-30T16:58:40.924Z,45.05
2022-11-30T17:03:45.778Z,46.65
2022-11-30T17:08:47.990Z,61.20
2022-11-30T17:13:49.775Z,63.83
2022-11-30T17:18:51.558Z,58.63
2022-11-30T17:23:53.431Z,57.85
2022-11-30T17:28:55.807Z,57.42
2022-11-30T17:33:57.591Z,60.22
2022-11-30T17:38:59.456Z,49.70
2022-11-30T17:44:02.330Z,53.70
2022-11-30T17:49:04.382Z,58.95
2022-11-30T17:54:06.175Z,55.20
2022-11-30T17:59:08.054Z,63.30
2022-11-30T18:04:09.909Z,52.80
2022-11-30T18:09:12.414Z,51.35
2022-11-30T18:14:14.231Z,55.83
2022-11-30T18:19:17.903Z,59.30
2022-11-30T18:24:25.064Z,49.95
2022-11-30T18:29:28.034Z,54.97
2022-11-30T18:34:29.798Z,59.83
2022-11-30T18:39:31.533Z,63.25
2022-11-30T18:44:33.274Z,64.97
2022-11-30T18:49:35.598Z,62.53
2022-11-30T18:54:37.333Z,64.80
2022-11-30T18:59:39.106Z,52.88
2022-11-30T19:04:40.824Z,59.53
2022-11-30T19:09:43.002Z,61.92
2022-11-30T19:14:45.483Z,62.33
2022-11-30T19:19:47.501Z,64.80
2022-11-30T19:24:49.431Z,73.07
2022-11-30T19:29:53.662Z,72.85
2022-11-30T19:34:55.414Z,70.03
2022-11-30T19:39:57.137Z,68.60
2022-11-30T19:44:58.955Z,74.25
2022-11-30T19:50:00.762Z,76.00
2022-11-30T19:55:02.626Z,67.75
2022-11-30T20:00:06.679Z,64.07
2022-11-30T20:05:08.979Z,79.63
2022-11-30T20:10:13.422Z,77.45
2022-11-30T20:15:15.219Z,81.70
2022-11-30T20:20:16.971Z,66.30
2022-11-30T20:25:19.969Z,72.55
2022-11-30T20:30:21.850Z,77.65
2022-11-30T20:35:23.556Z,70.55
2022-11-30T20:40:25.372Z,69.93
2022-11-30T20:45:27.153Z,61.47
2022-11-30T20:50:28.883Z,60.40
2022-11-30T20:55:30.638Z,71.50
2022-11-30T21:00:32.340Z,70.82
2022-11-30T21:05:34.499Z,60.90
2022-11-30T21:10:40.374Z,64.63
2022-11-30T21:15:42.264Z,66.43
2022-11-30T21:20:44.111Z,60.20
2022-11-30T21:25:45.854Z,61.58
2022-11-30T21:30:47.775Z,57.40
2022-11-30T21:35:49.614Z,57.30
2022-11-30T21:40:56.034Z,54.78
2022-11-30T21:46:02.908Z,57.20
2022-11-30T21:51:09.096Z,51.30
2022-11-30T21:56:14.152Z,51.13
2022-11-30T22:01:19.060Z,49.35
2022-11-30T22:06:20.897Z,50.13
2022-11-30T22:11:23.455Z,51.75
2022-11-30T22:16:29.924Z,52.28
2022-11-30T22:21:36.087Z,57.88
2022-11-30T22:26:43.666Z,55.15
2022-11-30T22:31:48.972Z,52.70
2022-11-30T22:36:50.967Z,48.97
2022-11-30T22:41:56.150Z,53.15
2022-11-30T22:46:59.758Z,48.08
2022-11-30T22:52:01.673Z,44.30
2022-11-30T22:57:03.458Z,49.03
2022-11-30T23:02:05.272Z,43.67
2022-11-30T23:07:06.988Z,44.22
2022-11-30T23:12:08.978Z,48.97
2022-11-30T23:17:11.178Z,40.15
2022-11-30T23:22:12.954Z,46.25
2022-11-30T23:27:14.697Z,46.33
2022-11-30T23:32:16.530Z,40.33
2022-11-30T23:37:18.403Z,47.70
2022-11-30T23:42:20.174Z,50.88
2022-11-30T23:47:21.916Z,48.70
2022-11-30T23:52:23.730Z,51.92
2022-11-30T23:57:25.489Z,52.45
